LRTC

Tulcea Airport

Tulcea, Romania
TAF LRTC 201400Z 2015/2024 14008KT 9999 OVC010 BECMG 2018/2020 20012KT 5000 -RA BR BKN005 OVC010
Issued Valid From Valid To
Jan-20 @ 14:00 UTC
(7 hours ago)
Jan-20 @ 15:00 UTC
(6 hours ago)
Jan-21 @ 00:00 UTC
(in 3 hours)
Expired Click to View Jan-20 @ 15:00 to Jan-20 @ 18:00
TAF LRTC 201400Z 2015/2024 14008KT 9999 OVC010
Wind Visibility Clouds
140° at 8 knots 10,000+ meters
  • Overcast at 1,000' AGL
Becoming Jan-20 @ 18:00 to Jan-21 @ 00:00
BECMG 2018/2020 20012KT 5000 -RA BR BKN005 OVC010
Wind Visibility Clouds Conditions
200° at 12 knots 5,005 meters
  • Broken at 500' AGL
  • Overcast at 1,000' AGL
  • Light Rain
  • Mist
TAF LRTC 201400Z 2015/2024 14008KT 9999 OVC010 BECMG 2018/2020 20012KT 5000 -RA BR BKN005 OVC010
Issued Jan-20 @ 14:00 UTC
(7 hours ago)
Valid From Jan-20 @ 15:00 UTC
(6 hours ago)
Valid To Jan-21 @ 00:00 UTC
(in 3 hours)
Jan-20 @ 15:00 - Jan-20 @ 18:00
Wind Visibility
140° at 8 knots 10,000+ meters
Clouds
  • Overcast at 1,000' AGL
Becoming Jan-20 @ 18:00 - Jan-21 @ 00:00
Wind Visibility
200° at 12 knots 5,005 meters
Clouds
  • Broken at 500' AGL
  • Overcast at 1,000' AGL
Conditions
  • Light Rain
  • Mist